首页
METAR-TAF:

METAR-TAF

机场 :

Natashquan, 魁北克, 加拿大

纬度: 50-11N, 经度: 061-49W, 海拔: 7米

当前天气观测

该预报发布于17分钟前的23:23 UTC
风速9节,风向
温度 -2°C
湿度 93%
气压 1008 hPa
能見度: 2.8公里
阴天层高于1500英尺
小雪

METAR: CYNA 262323Z AUTO 19009KT 1 3/4SM -SN OVC015 M02/M03 A2976 RMK SLP080

时间: 18:40 (23:40 UTC)

预报

该预报发布于4小时和0分钟前的19:40 UTC
预报有效从26日的 20点(UTC)到 27日的 08点(UTC)
风速10节,风向,有时为20节阵风
能見度: 10公里
阴天层高于2000英尺
短暂存在
从 26日的 20点(UTC)到 26日的 21点(UTC)
阴天层高于2500英尺
从 26日的 2100点(UTC)
风速10节,风向南转西南,有时为20节阵风
能見度: 9.7公里
阴天层高于2000英尺
小雪
成为
从 26日的 21点(UTC)到 26日的 23点(UTC)
能見度: 1.6公里
阴天层高于800英尺
小雪
从 26日的 2300点(UTC)
风速10节,风向南转西南
能見度: 1.6公里
阴天层高于800英尺
小雪
短暂存在
从 26日的 23点(UTC)到 27日的 04点(UTC)
能見度: 4.0公里
阴天层高于1200英尺
小雪
几率 30%
从 26日的 23点(UTC)到 27日的 04点(UTC)
能見度: 4.4公里
层高于600英尺
小雪
从 27日的 0400点(UTC)
风速5节,风向北转西北
能見度: 3.2公里
阴天层高于3000英尺
小雪
从 27日的 0500点(UTC)
风速8节,风向西北
能見度: 10公里
多云层高于4000英尺

TAF: CYNA 261940Z 2620/2708 18010G20KT P6SM OVC020 TEMPO 2620/2621 OVC025 FM262100 20010G20KT 6SM -SN OVC020 BECMG 2621/2623 1SM -SN OVC008 FM262300 20010KT 1SM -SN OVC008 TEMPO 2623/2704 2 1/2SM -SN OVC012 PROB30 2623/2704 3/4SM -SN VV006 FM270400 34005KT 4SM -SN OVC030 FM270500 31008KT P6SM BKN040 RMK FCST BASED ON AUTO OBS. NXT FCST BY 270200Z

超过4000个机场的气象观测和天气预报(METAR&TAF报告)。

可查询的气象台以黄色和红色小点在地图上表示。

将鼠标移到小点上方,可查看气象台名称。

然后点击查看天气观测和预报。

如需切换地图:点击带黑十字的绿色按钮放大地图;点击带横线的绿色按钮缩小地图;或者点击绿色箭头查看邻近地区的地图。


METAR-TAF: